sensor_id;sensor_type;location;lat;lon;timestamp;P1;durP1;ratioP1;P2;durP2;ratioP2
74219;SDS011;62580;54.416;11.120;2022-09-16T00:04:41;2.03;;;1.10;;
74219;SDS011;62580;54.416;11.120;2022-09-16T00:14:42;1.10;;;0.90;;
74219;SDS011;62580;54.416;11.120;2022-09-16T00:24:44;1.87;;;1.00;;
74219;SDS011;62580;54.416;11.120;2022-09-16T00:34:47;2.50;;;1.10;;
74219;SDS011;62580;54.416;11.120;2022-09-16T00:44:54;2.33;;;1.00;;
74219;SDS011;62580;54.416;11.120;2022-09-16T00:54:56;2.53;;;1.30;;
74219;SDS011;62580;54.416;11.120;2022-09-16T01:05:03;2.43;;;1.20;;
74219;SDS011;62580;54.416;11.120;2022-09-16T01:15:09;1.93;;;1.10;;
74219;SDS011;62580;54.416;11.120;2022-09-16T01:25:14;2.43;;;1.10;;
74219;SDS011;62580;54.416;11.120;2022-09-16T01:35:31;2.30;;;1.10;;
74219;SDS011;62580;54.416;11.120;2022-09-16T01:45:41;2.13;;;0.90;;
74219;SDS011;62580;54.416;11.120;2022-09-16T01:55:50;1.80;;;1.03;;
74219;SDS011;62580;54.416;11.120;2022-09-16T02:05:57;2.47;;;0.87;;
74219;SDS011;62580;54.416;11.120;2022-09-16T02:16:03;2.30;;;1.00;;
74219;SDS011;62580;54.416;11.120;2022-09-16T02:26:08;1.63;;;0.93;;
74219;SDS011;62580;54.416;11.120;2022-09-16T02:36:11;1.60;;;0.97;;
74219;SDS011;62580;54.416;11.120;2022-09-16T02:46:17;2.17;;;1.13;;
74219;SDS011;62580;54.416;11.120;2022-09-16T02:56:28;1.90;;;1.20;;
74219;SDS011;62580;54.416;11.120;2022-09-16T03:06:31;1.63;;;0.83;;
74219;SDS011;62580;54.416;11.120;2022-09-16T03:16:34;2.77;;;1.17;;
74219;SDS011;62580;54.416;11.120;2022-09-16T03:26:45;1.93;;;1.00;;
74219;SDS011;62580;54.416;11.120;2022-09-16T03:36:56;3.17;;;1.10;;
74219;SDS011;62580;54.416;11.120;2022-09-16T03:46:58;2.23;;;1.17;;
74219;SDS011;62580;54.416;11.120;2022-09-16T03:57:00;3.13;;;1.47;;
74219;SDS011;62580;54.416;11.120;2022-09-16T04:07:01;1.67;;;1.00;;
74219;SDS011;62580;54.416;11.120;2022-09-16T04:17:03;2.23;;;1.30;;
74219;SDS011;62580;54.416;11.120;2022-09-16T04:27:04;3.90;;;1.43;;
74219;SDS011;62580;54.416;11.120;2022-09-16T04:37:06;2.93;;;1.17;;
74219;SDS011;62580;54.416;11.120;2022-09-16T04:47:07;1.50;;;0.97;;
74219;SDS011;62580;54.416;11.120;2022-09-16T04:57:09;2.90;;;1.27;;
74219;SDS011;62580;54.416;11.120;2022-09-16T05:07:09;1.80;;;1.03;;
74219;SDS011;62580;54.416;11.120;2022-09-16T05:17:11;2.80;;;1.20;;
74219;SDS011;62580;54.416;11.120;2022-09-16T05:27:13;2.93;;;1.10;;
74219;SDS011;62580;54.416;11.120;2022-09-16T05:37:15;2.37;;;1.07;;
74219;SDS011;62580;54.416;11.120;2022-09-16T05:47:15;1.60;;;0.87;;
74219;SDS011;62580;54.416;11.120;2022-09-16T05:57:17;1.80;;;1.00;;
74219;SDS011;62580;54.416;11.120;2022-09-16T06:07:18;2.37;;;1.13;;
74219;SDS011;62580;54.416;11.120;2022-09-16T06:17:20;4.33;;;1.10;;
74219;SDS011;62580;54.416;11.120;2022-09-16T06:27:20;2.33;;;1.00;;
74219;SDS011;62580;54.416;11.120;2022-09-16T06:37:22;3.72;;;1.30;;
74219;SDS011;62580;54.416;11.120;2022-09-16T06:47:23;3.10;;;1.30;;
74219;SDS011;62580;54.416;11.120;2022-09-16T06:57:25;3.50;;;1.40;;
74219;SDS011;62580;54.416;11.120;2022-09-16T07:07:28;3.17;;;1.20;;
74219;SDS011;62580;54.416;11.120;2022-09-16T07:17:30;2.57;;;1.20;;
74219;SDS011;62580;54.416;11.120;2022-09-16T07:27:31;2.80;;;1.20;;
74219;SDS011;62580;54.416;11.120;2022-09-16T07:37:33;3.43;;;1.20;;
74219;SDS011;62580;54.416;11.120;2022-09-16T07:47:34;3.10;;;1.20;;
74219;SDS011;62580;54.416;11.120;2022-09-16T07:57:37;1.50;;;0.90;;
74219;SDS011;62580;54.416;11.120;2022-09-16T08:07:37;2.00;;;1.10;;
74219;SDS011;62580;54.416;11.120;2022-09-16T08:17:39;2.63;;;1.13;;
74219;SDS011;62580;54.416;11.120;2022-09-16T08:27:40;2.20;;;1.00;;
74219;SDS011;62580;54.416;11.120;2022-09-16T08:37:42;1.93;;;1.07;;
74219;SDS011;62580;54.416;11.120;2022-09-16T08:47:45;2.63;;;1.20;;
74219;SDS011;62580;54.416;11.120;2022-09-16T08:57:55;3.67;;;1.10;;
74219;SDS011;62580;54.416;11.120;2022-09-16T09:08:02;1.33;;;0.87;;
74219;SDS011;62580;54.416;11.120;2022-09-16T09:18:16;1.97;;;1.00;;
74219;SDS011;62580;54.416;11.120;2022-09-16T09:28:39;1.67;;;0.90;;
74219;SDS011;62580;54.416;11.120;2022-09-16T09:39:03;2.60;;;1.00;;
74219;SDS011;62580;54.416;11.120;2022-09-16T09:49:12;3.53;;;1.00;;
74219;SDS011;62580;54.416;11.120;2022-09-16T09:59:21;2.63;;;1.20;;
74219;SDS011;62580;54.416;11.120;2022-09-16T10:09:28;2.30;;;0.90;;
74219;SDS011;62580;54.416;11.120;2022-09-16T10:19:31;2.43;;;1.07;;
74219;SDS011;62580;54.416;11.120;2022-09-16T10:29:38;1.60;;;1.00;;
74219;SDS011;62580;54.416;11.120;2022-09-16T10:39:41;2.13;;;1.13;;
74219;SDS011;62580;54.416;11.120;2022-09-16T10:49:45;2.07;;;0.97;;
74219;SDS011;62580;54.416;11.120;2022-09-16T10:59:56;2.93;;;1.10;;
74219;SDS011;62580;54.416;11.120;2022-09-16T11:09:59;3.43;;;1.20;;
74219;SDS011;62580;54.416;11.120;2022-09-16T11:20:18;1.80;;;1.10;;
74219;SDS011;62580;54.416;11.120;2022-09-16T11:30:41;1.83;;;1.07;;
74219;SDS011;62580;54.416;11.120;2022-09-16T11:40:52;3.20;;;1.20;;
74219;SDS011;62580;54.416;11.120;2022-09-16T11:50:59;3.33;;;1.10;;
74219;SDS011;62580;54.416;11.120;2022-09-16T12:01:10;2.87;;;1.20;;
74219;SDS011;62580;54.416;11.120;2022-09-16T12:11:18;2.17;;;0.90;;
74219;SDS011;62580;54.416;11.120;2022-09-16T12:21:24;1.30;;;0.87;;
74219;SDS011;62580;54.416;11.120;2022-09-16T12:31:29;2.33;;;0.90;;
74219;SDS011;62580;54.416;11.120;2022-09-16T12:41:40;1.70;;;0.93;;
74219;SDS011;62580;54.416;11.120;2022-09-16T12:52:01;2.07;;;1.03;;
74219;SDS011;62580;54.416;11.120;2022-09-16T13:02:28;2.33;;;0.93;;
74219;SDS011;62580;54.416;11.120;2022-09-16T13:12:33;1.27;;;0.80;;
74219;SDS011;62580;54.416;11.120;2022-09-16T13:22:37;1.70;;;1.00;;
74219;SDS011;62580;54.416;11.120;2022-09-16T13:32:55;1.53;;;0.90;;
74219;SDS011;62580;54.416;11.120;2022-09-16T13:43:12;1.60;;;0.73;;
74219;SDS011;62580;54.416;11.120;2022-09-16T13:53:17;1.73;;;0.83;;
74219;SDS011;62580;54.416;11.120;2022-09-16T14:03:32;1.40;;;0.73;;
74219;SDS011;62580;54.416;11.120;2022-09-16T14:13:44;1.27;;;0.80;;
74219;SDS011;62580;54.416;11.120;2022-09-16T14:23:48;1.27;;;0.83;;
74219;SDS011;62580;54.416;11.120;2022-09-16T14:33:50;1.63;;;0.80;;
74219;SDS011;62580;54.416;11.120;2022-09-16T14:43:54;1.17;;;0.80;;
74219;SDS011;62580;54.416;11.120;2022-09-16T14:54:01;1.23;;;0.83;;
74219;SDS011;62580;54.416;11.120;2022-09-16T15:04:03;1.17;;;0.73;;
74219;SDS011;62580;54.416;11.120;2022-09-16T15:14:07;1.40;;;0.70;;
74219;SDS011;62580;54.416;11.120;2022-09-16T15:24:14;1.90;;;0.80;;
74219;SDS011;62580;54.416;11.120;2022-09-16T15:34:20;1.40;;;0.73;;
74219;SDS011;62580;54.416;11.120;2022-09-16T15:44:24;0.83;;;0.67;;
74219;SDS011;62580;54.416;11.120;2022-09-16T15:54:27;1.07;;;0.60;;
74219;SDS011;62580;54.416;11.120;2022-09-16T16:04:33;0.93;;;0.70;;
74219;SDS011;62580;54.416;11.120;2022-09-16T16:14:34;1.33;;;0.73;;
74219;SDS011;62580;54.416;11.120;2022-09-16T16:24:38;1.13;;;0.60;;
74219;SDS011;62580;54.416;11.120;2022-09-16T16:34:39;0.97;;;0.80;;
74219;SDS011;62580;54.416;11.120;2022-09-16T16:44:42;0.70;;;0.40;;
74219;SDS011;62580;54.416;11.120;2022-09-16T16:54:43;0.80;;;0.63;;
74219;SDS011;62580;54.416;11.120;2022-09-16T17:04:45;1.90;;;0.70;;
74219;SDS011;62580;54.416;11.120;2022-09-16T17:14:45;1.20;;;0.80;;
74219;SDS011;62580;54.416;11.120;2022-09-16T17:24:47;1.10;;;0.60;;
74219;SDS011;62580;54.416;11.120;2022-09-16T17:34:48;0.80;;;0.63;;
74219;SDS011;62580;54.416;11.120;2022-09-16T17:44:50;0.90;;;0.40;;
74219;SDS011;62580;54.416;11.120;2022-09-16T17:54:50;0.77;;;0.50;;
74219;SDS011;62580;54.416;11.120;2022-09-16T18:04:52;0.77;;;0.50;;
74219;SDS011;62580;54.416;11.120;2022-09-16T18:14:53;0.80;;;0.60;;
74219;SDS011;62580;54.416;11.120;2022-09-16T18:24:55;1.00;;;0.60;;
74219;SDS011;62580;54.416;11.120;2022-09-16T18:34:55;0.70;;;0.40;;
74219;SDS011;62580;54.416;11.120;2022-09-16T18:44:57;0.90;;;0.50;;
74219;SDS011;62580;54.416;11.120;2022-09-16T18:54:58;0.80;;;0.60;;
74219;SDS011;62580;54.416;11.120;2022-09-16T19:05:00;0.65;;;0.30;;
74219;SDS011;62580;54.416;11.120;2022-09-16T19:15:00;0.80;;;0.60;;
74219;SDS011;62580;54.416;11.120;2022-09-16T19:25:03;0.60;;;0.60;;
74219;SDS011;62580;54.416;11.120;2022-09-16T19:35:04;0.40;;;0.23;;
74219;SDS011;62580;54.416;11.120;2022-09-16T19:45:06;0.60;;;0.50;;
74219;SDS011;62580;54.416;11.120;2022-09-16T19:55:08;0.57;;;0.50;;
74219;SDS011;62580;54.416;11.120;2022-09-16T20:05:10;0.47;;;0.40;;
74219;SDS011;62580;54.416;11.120;2022-09-16T20:15:11;1.00;;;0.57;;
74219;SDS011;62580;54.416;11.120;2022-09-16T20:25:13;0.70;;;0.43;;
74219;SDS011;62580;54.416;11.120;2022-09-16T20:35:14;0.80;;;0.60;;
74219;SDS011;62580;54.416;11.120;2022-09-16T20:45:16;0.70;;;0.50;;
74219;SDS011;62580;54.416;11.120;2022-09-16T20:55:16;0.60;;;0.40;;
74219;SDS011;62580;54.416;11.120;2022-09-16T21:05:18;0.43;;;0.43;;
74219;SDS011;62580;54.416;11.120;2022-09-16T21:15:19;0.50;;;0.50;;
74219;SDS011;62580;54.416;11.120;2022-09-16T21:25:21;1.20;;;0.50;;
74219;SDS011;62580;54.416;11.120;2022-09-16T21:35:22;1.03;;;0.50;;
74219;SDS011;62580;54.416;11.120;2022-09-16T21:45:24;0.70;;;0.43;;
74219;SDS011;62580;54.416;11.120;2022-09-16T21:55:24;0.73;;;0.50;;
74219;SDS011;62580;54.416;11.120;2022-09-16T22:05:26;0.50;;;0.50;;
74219;SDS011;62580;54.416;11.120;2022-09-16T22:15:28;0.60;;;0.50;;
74219;SDS011;62580;54.416;11.120;2022-09-16T22:25:30;0.60;;;0.60;;
74219;SDS011;62580;54.416;11.120;2022-09-16T22:35:34;0.70;;;0.47;;
74219;SDS011;62580;54.416;11.120;2022-09-16T22:45:36;0.97;;;0.60;;
74219;SDS011;62580;54.416;11.120;2022-09-16T22:55:37;0.77;;;0.40;;
74219;SDS011;62580;54.416;11.120;2022-09-16T23:05:39;0.68;;;0.50;;
74219;SDS011;62580;54.416;11.120;2022-09-16T23:15:39;0.83;;;0.40;;
74219;SDS011;62580;54.416;11.120;2022-09-16T23:25:41;1.20;;;0.67;;
74219;SDS011;62580;54.416;11.120;2022-09-16T23:35:45;1.77;;;0.70;;
74219;SDS011;62580;54.416;11.120;2022-09-16T23:45:49;0.40;;;0.40;;
74219;SDS011;62580;54.416;11.120;2022-09-16T23:55:50;0.80;;;0.67;;
